Time;durP1;ratioP1;P1;durP2;ratioP2;P2;SDS_P1;SDS_P2;PMS_P1;PMS_P2;Temp;Humidity;BMP_temperature;BMP_pressure;BME280_temperature;BME280_humidity;BME280_pressure;Samples;Min_cycle;Max_cycle;Signal;HPM_P1;HPM_P2
2022/09/04 00:00:27;;;;;;;;;;;;;;;;;;5046649;28;19909;-60
2022/09/04 00:02:54;;;;;;;;;;;;;;;;;;5045820;28;19975;-60
2022/09/04 00:05:20;;;;;;;;;;;;;;;;;;5046642;28;19913;-60
2022/09/04 00:07:46;;;;;;;;;;;;;;;;;;5046433;28;20498;-60
2022/09/04 00:10:12;;;;;;;;;;;;;;;;;;5047333;28;19943;-60
2022/09/04 00:12:38;;;;;;;;;;;;;;;;;;5045655;28;19920;-60
2022/09/04 00:15:04;;;;;;;;;;;;;;;;;;5046505;28;19909;-60
2022/09/04 00:17:30;;;;;;;;;;;;;;;;;;5045989;28;19913;-60
2022/09/04 00:19:58;;;;;;;;;;;;;;;;;;5046601;28;19913;-60
2022/09/04 00:22:24;;;;;;;;;;;;;;;;;;5045177;28;19920;-60
2022/09/04 00:24:50;;;;;;;;;;;;;;;;;;5045424;28;20008;-61
2022/09/04 00:27:16;;;;;;;;;;;;;;;;;;5046359;28;19909;-60
2022/09/04 00:29:42;;;;;;;;;;;;;;;;;;5046719;28;19959;-60
2022/09/04 00:32:08;;;;;;;;;;;;;;;;;;5046093;28;19917;-60
2022/09/04 00:34:34;;;;;;;;;;;;;;;;;;5045641;28;19917;-60
2022/09/04 00:37:00;;;;;;;;;;;;;;;;;;5045822;28;19908;-60
2022/09/04 00:39:26;;;;;;;;;;;;;;;;;;5046400;28;19916;-60
2022/09/04 00:41:52;;;;;;;;;;;;;;;;;;5046661;28;20000;-60
2022/09/04 00:44:18;;;;;;;;;;;;;;;;;;5050126;28;19932;-60
2022/09/04 00:46:44;;;;;;;;;;;;;;;;;;5048792;28;20324;-60
2022/09/04 00:49:10;;;;;;;;;;;;;;;;;;5050502;28;20055;-60
2022/09/04 00:51:36;;;;;;;;;;;;;;;;;;5049831;28;19919;-60
2022/09/04 00:54:02;;;;;;;;;;;;;;;;;;5032164;28;19917;-60
2022/09/04 00:56:28;;;;;;;;;;;;;;;;;;5043912;28;19921;-60
2022/09/04 00:58:54;;;;;;;;;;;;;;;;;;5050006;28;19913;-60
2022/09/04 01:01:20;;;;;;;;;;;;;;;;;;5048866;28;19946;-60
2022/09/04 01:03:46;;;;;;;;;;;;;;;;;;5048921;28;19913;-60
2022/09/04 01:06:12;;;;;;;;;;;;;;;;;;5050480;28;20023;-60
2022/09/04 01:08:39;;;;;;;;;;;;;;;;;;5049973;28;20012;-60
2022/09/04 01:11:05;;;;;;;;;;;;;;;;;;5048589;28;19947;-60
2022/09/04 01:13:32;;;;;;;;;;;;;;;;;;5048938;28;19912;-61
2022/09/04 01:15:58;;;;;;;;;;;;;;;;;;5049351;28;19913;-60
2022/09/04 01:18:24;;;;;;;;;;;;;;;;;;5049775;28;19931;-60
2022/09/04 01:20:50;;;;;;;;;;;;;;;;;;5048511;28;19999;-60
2022/09/04 01:23:16;;;;;;;;;;;;;;;;;;5049262;28;19947;-60
2022/09/04 01:25:42;;;;;;;;;;;;;;;;;;5049633;28;19912;-61
2022/09/04 01:28:08;;;;;;;;;;;;;;;;;;5049358;28;19916;-60
2022/09/04 01:30:34;;;;;;;;;;;;;;;;;;5048049;28;20058;-60
2022/09/04 01:33:00;;;;;;;;;;;;;;;;;;5048406;28;19917;-60
2022/09/04 01:35:26;;;;;;;;;;;;;;;;;;5048481;28;19913;-60
2022/09/04 01:37:51;;;;;;;;;;;;;;;;;;5048926;28;19967;-60
2022/09/04 01:40:17;;;;;;;;;;;;;;;;;;5048599;28;19932;-60
2022/09/04 01:42:44;;;;;;;;;;;;;;;;;;5047541;28;19921;-60
2022/09/04 01:45:10;;;;;;;;;;;;;;;;;;5048154;28;19959;-60
2022/09/04 01:47:36;;;;;;;;;;;;;;;;;;5048588;28;20486;-60
2022/09/04 01:50:03;;;;;;;;;;;;;;;;;;5048977;28;19923;-60
2022/09/04 01:52:28;;;;;;;;;;;;;;;;;;5048554;28;19956;-60
2022/09/04 01:54:55;;;;;;;;;;;;;;;;;;5048169;28;19974;-61
2022/09/04 01:57:21;;;;;;;;;;;;;;;;;;5048937;28;19992;-61
2022/09/04 01:59:48;;;;;;;;;;;;;;;;;;5048320;28;20015;-60
2022/09/04 02:02:14;;;;;;;;;;;;;;;;;;5048810;28;20406;-61
2022/09/04 02:04:40;;;;;;;;;;;;;;;;;;5048485;28;19974;-60
2022/09/04 02:07:06;;;;;;;;;;;;;;;;;;5048567;28;19920;-60
2022/09/04 02:09:32;;;;;;;;;;;;;;;;;;5048421;28;19909;-60
2022/09/04 02:11:57;;;;;;;;;;;;;;;;;;5047042;28;19917;-60
2022/09/04 02:14:26;;;;;;;;;;;;;;;;;;5048549;28;19974;-60
2022/09/04 02:16:55;;;;;;;;;;;;;;;;;;5048058;28;19920;-60
2022/09/04 02:19:21;;;;;;;;;;;;;;;;;;5048582;28;20356;-60
2022/09/04 02:21:47;;;;;;;;;;;;;;;;;;5047283;28;19913;-60
2022/09/04 02:24:13;;;;;;;;;;;;;;;;;;5048413;28;19944;-60
2022/09/04 02:26:39;;;;;;;;;;;;;;;;;;5048731;28;19995;-60
2022/09/04 02:29:05;;;;;;;;;;;;;;;;;;5047871;28;19909;-60
2022/09/04 02:31:31;;;;;;;;;;;;;;;;;;5047007;28;19943;-60
2022/09/04 02:33:57;;;;;;;;;;;;;;;;;;5048132;28;19913;-60
2022/09/04 02:36:23;;;;;;;;;;;;;;;;;;5048114;28;19952;-60
2022/09/04 02:38:50;;;;;;;;;;;;;;;;;;5046880;28;19990;-60
2022/09/04 02:41:16;;;;;;;;;;;;;;;;;;5047455;28;19935;-60
2022/09/04 02:43:42;;;;;;;;;;;;;;;;;;5048071;28;20372;-60
2022/09/04 02:46:08;;;;;;;;;;;;;;;;;;5047703;28;19982;-60
2022/09/04 02:48:33;;;;;;;;;;;;;;;;;;5047786;28;20015;-60
2022/09/04 02:50:59;;;;;;;;;;;;;;;;;;5046934;28;20003;-60
2022/09/04 02:53:25;;;;;;;;;;;;;;;;;;5047104;28;19917;-60
2022/09/04 02:55:51;;;;;;;;;;;;;;;;;;5047468;28;19913;-60
2022/09/04 02:58:17;;;;;;;;;;;;;;;;;;5047442;28;19919;-60
2022/09/04 03:00:43;;;;;;;;;;;;;;;;;;5046897;28;19983;-60
2022/09/04 03:03:09;;;;;;;;;;;;;;;;;;5048345;28;19913;-60
2022/09/04 03:05:35;;;;;;;;;;;;;;;;;;5046891;28;19947;-60
2022/09/04 03:08:01;;;;;;;;;;;;;;;;;;5047372;28;19955;-60
2022/09/04 03:10:27;;;;;;;;;;;;;;;;;;5046790;28;19913;-60
2022/09/04 03:12:53;;;;;;;;;;;;;;;;;;5047160;28;19931;-60
2022/09/04 03:15:19;;;;;;;;;;;;;;;;;;5047313;28;19913;-60
2022/09/04 03:17:45;;;;;;;;;;;;;;;;;;5046117;28;19955;-60
2022/09/04 03:20:11;;;;;;;;;;;;;;;;;;5047030;28;19938;-60
2022/09/04 03:22:37;;;;;;;;;;;;;;;;;;5047270;28;19996;-60
2022/09/04 03:25:03;;;;;;;;;;;;;;;;;;5047026;28;19917;-60
2022/09/04 03:27:29;;;;;;;;;;;;;;;;;;5046492;28;19951;-60
2022/09/04 03:29:55;;;;;;;;;;;;;;;;;;5045977;28;19913;-60
2022/09/04 03:32:21;;;;;;;;;;;;;;;;;;5046878;28;19917;-61
2022/09/04 03:34:47;;;;;;;;;;;;;;;;;;5046706;28;19916;-60
2022/09/04 03:37:13;;;;;;;;;;;;;;;;;;5046393;28;19921;-60
2022/09/04 03:39:39;;;;;;;;;;;;;;;;;;5046305;28;20642;-61
2022/09/04 03:42:05;;;;;;;;;;;;;;;;;;5046279;28;19923;-60
2022/09/04 03:44:31;;;;;;;;;;;;;;;;;;5046594;28;19920;-61
2022/09/04 03:46:57;;;;;;;;;;;;;;;;;;5046908;28;20383;-61
2022/09/04 03:49:25;;;;;;;;;;;;;;;;;;5046170;28;19917;-60
2022/09/04 03:51:51;;;;;;;;;;;;;;;;;;5046658;28;19917;-61
2022/09/04 03:54:17;;;;;;;;;;;;;;;;;;5046907;28;19915;-61
2022/09/04 03:56:43;;;;;;;;;;;;;;;;;;5047136;28;19941;-61
2022/09/04 03:59:09;;;;;;;;;;;;;;;;;;5046354;28;19916;-61
2022/09/04 04:01:35;;;;;;;;;;;;;;;;;;5046813;28;19920;-60
2022/09/04 04:04:02;;;;;;;;;;;;;;;;;;5045171;28;19939;-61
2022/09/04 04:06:28;;;;;;;;;;;;;;;;;;5046596;28;19910;-60
2022/09/04 04:08:55;;;;;;;;;;;;;;;;;;5046415;28;20276;-60
2022/09/04 04:11:23;;;;;;;;;;;;;;;;;;5046372;28;19970;-60
2022/09/04 04:13:48;;;;;;;;;;;;;;;;;;5045657;28;19925;-60
2022/09/04 04:16:14;;;;;;;;;;;;;;;;;;5047906;28;19920;-60
2022/09/04 04:18:41;;;;;;;;;;;;;;;;;;5051185;28;20005;-60
2022/09/04 04:21:07;;;;;;;;;;;;;;;;;;5050054;28;19920;-60
2022/09/04 04:23:35;;;;;;;;;;;;;;;;;;5050790;28;19912;-60
2022/09/04 04:26:01;;;;;;;;;;;;;;;;;;5050040;28;19924;-61
2022/09/04 04:28:26;;;;;;;;;;;;;;;;;;5050422;28;20327;-61
2022/09/04 04:30:53;;;;;;;;;;;;;;;;;;5050317;28;19936;-61
2022/09/04 04:33:19;;;;;;;;;;;;;;;;;;5050612;28;19978;-61
2022/09/04 04:35:47;;;;;;;;;;;;;;;;;;5049198;28;20384;-61
2022/09/04 04:38:13;;;;;;;;;;;;;;;;;;5050908;28;20066;-61
2022/09/04 04:40:40;;;;;;;;;;;;;;;;;;5051067;28;19912;-60
2022/09/04 04:43:06;;;;;;;;;;;;;;;;;;5050241;28;19920;-60
2022/09/04 04:45:50;;;;;;;;;;;;;;;;;;5048878;28;19921;-60
2022/09/04 04:48:16;;;;;;;;;;;;;;;;;;5049081;28;19917;-60
2022/09/04 04:50:42;;;;;;;;;;;;;;;;;;5050547;28;19908;-61
2022/09/04 04:53:07;;;;;;;;;;;;;;;;;;5050188;28;20014;-61
2022/09/04 04:55:33;;;;;;;;;;;;;;;;;;5049128;28;19943;-61
2022/09/04 04:57:59;;;;;;;;;;;;;;;;;;5049535;28;19912;-61
2022/09/04 05:00:25;;;;;;;;;;;;;;;;;;5050022;28;19957;-61
2022/09/04 05:02:51;;;;;;;;;;;;;;;;;;5048856;28;19916;-61
2022/09/04 05:05:17;;;;;;;;;;;;;;;;;;5049272;28;19913;-60
2022/09/04 05:07:43;;;;;;;;;;;;;;;;;;5049583;28;20003;-61
2022/09/04 05:10:09;;;;;;;;;;;;;;;;;;5050289;28;20003;-61
2022/09/04 05:12:35;;;;;;;;;;;;;;;;;;5049685;28;19917;-60
2022/09/04 05:15:01;;;;;;;;;;;;;;;;;;5048394;28;19924;-60
2022/09/04 05:17:27;;;;;;;;;;;;;;;;;;5049820;28;19909;-61
2022/09/04 05:19:53;;;;;;;;;;;;;;;;;;5049280;28;19956;-61
2022/09/04 05:22:19;;;;;;;;;;;;;;;;;;5049573;28;19959;-61
2022/09/04 05:24:45;;;;;;;;;;;;;;;;;;5047831;28;19917;-61
2022/09/04 05:27:11;;;;;;;;;;;;;;;;;;5049520;28;19955;-61
2022/09/04 05:29:38;;;;;;;;;;;;;;;;;;5049012;28;19909;-61
2022/09/04 05:32:04;;;;;;;;;;;;;;;;;;5049221;28;19935;-61
2022/09/04 05:34:30;;;;;;;;;;;;;;;;;;5048251;28;19913;-61
2022/09/04 05:36:56;;;;;;;;;;;;;;;;;;5048777;28;19912;-61
2022/09/04 05:39:22;;;;;;;;;;;;;;;;;;5049336;28;19913;-60
2022/09/04 05:41:47;;;;;;;;;;;;;;;;;;5047957;28;19974;-61
2022/09/04 05:44:13;;;;;;;;;;;;;;;;;;5048752;28;19947;-60
2022/09/04 05:46:39;;;;;;;;;;;;;;;;;;5049432;28;19909;-61
2022/09/04 05:49:05;;;;;;;;;;;;;;;;;;5050231;28;19915;-60
2022/09/04 05:51:31;;;;;;;;;;;;;;;;;;5050829;28;19982;-60
2022/09/04 05:53:57;;;;;;;;;;;;;;;;;;5051179;28;19916;-60
2022/09/04 05:56:23;;;;;;;;;;;;;;;;;;5048700;28;19912;-61
2022/09/04 05:58:49;;;;;;;;;;;;;;;;;;5048518;28;19920;-61
2022/09/04 06:01:15;;;;;;;;;;;;;;;;;;5048456;28;19967;-61
2022/09/04 06:03:41;;;;;;;;;;;;;;;;;;5048643;28;19927;-60
2022/09/04 06:06:06;;;;;;;;;;;;;;;;;;5048986;28;20307;-60
2022/09/04 06:08:32;;;;;;;;;;;;;;;;;;5048905;28;19923;-60
2022/09/04 06:10:58;;;;;;;;;;;;;;;;;;5048585;28;19912;-60
2022/09/04 06:13:24;;;;;;;;;;;;;;;;;;5046933;28;19935;-60
2022/09/04 06:15:50;;;;;;;;;;;;;;;;;;5048787;28;19916;-60
2022/09/04 06:18:16;;;;;;;;;;;;;;;;;;5047836;28;20302;-60
2022/09/04 06:20:42;;;;;;;;;;;;;;;;;;5044904;28;19912;-60
2022/09/04 06:23:08;;;;;;;;;;;;;;;;;;5047271;28;19917;-65
2022/09/04 06:25:34;;;;;;;;;;;;;;;;;;5047587;28;20399;-60
2022/09/04 06:28:00;;;;;;;;;;;;;;;;;;5047217;28;19909;-60
2022/09/04 06:30:26;;;;;;;;;;;;;;;;;;5046410;28;19956;-60
2022/09/04 06:32:52;;;;;;;;;;;;;;;;;;5046657;28;19956;-60
2022/09/04 06:35:19;;;;;;;;;;;;;;;;;;5047156;28;19921;-60
2022/09/04 06:37:45;;;;;;;;;;;;;;;;;;5047718;28;19912;-60
2022/09/04 06:40:11;;;;;;;;;;;;;;;;;;5044309;28;19952;-60
2022/09/04 06:42:37;;;;;;;;;;;;;;;;;;5048150;28;19959;-59
2022/09/04 06:45:03;;;;;;;;;;;;;;;;;;5046832;28;20535;-60
2022/09/04 06:47:29;;;;;;;;;;;;;;;;;;5047926;28;19948;-60
2022/09/04 06:49:58;;;;;;;;;;;;;;;;;;5047297;28;19919;-60
2022/09/04 06:52:24;;;;;;;;;;;;;;;;;;5046943;28;19925;-60
2022/09/04 06:54:50;;;;;;;;;;;;;;;;;;5047706;28;19943;-60
2022/09/04 06:57:16;;;;;;;;;;;;;;;;;;5047376;28;19913;-60
2022/09/04 06:59:42;;;;;;;;;;;;;;;;;;5048352;28;19909;-60
2022/09/04 07:02:09;;;;;;;;;;;;;;;;;;5047536;28;19913;-60
2022/09/04 07:04:35;;;;;;;;;;;;;;;;;;5047901;28;20296;-60
2022/09/04 07:07:01;;;;;;;;;;;;;;;;;;5046544;28;19913;-60
2022/09/04 07:09:27;;;;;;;;;;;;;;;;;;5047535;28;19912;-60
2022/09/04 07:11:53;;;;;;;;;;;;;;;;;;5040904;28;20058;-60
2022/09/04 07:14:19;;;;;;;;;;;;;;;;;;5047277;28;20007;-60
2022/09/04 07:16:45;;;;;;;;;;;;;;;;;;5045501;28;19986;-60
2022/09/04 07:19:10;;;;;;;;;;;;;;;;;;5047052;28;19978;-60
2022/09/04 07:21:38;;;;;;;;;;;;;;;;;;5041502;28;19913;-60
2022/09/04 07:24:04;;;;;;;;;;;;;;;;;;5046259;28;19921;-60
2022/09/04 07:26:30;;;;;;;;;;;;;;;;;;5047989;28;19924;-60
2022/09/04 07:28:56;;;;;;;;;;;;;;;;;;5045409;28;20279;-60
2022/09/04 07:31:21;;;;;;;;;;;;;;;;;;5045518;28;19916;-60
2022/09/04 07:33:47;;;;;;;;;;;;;;;;;;5046938;28;19909;-60
2022/09/04 07:36:15;;;;;;;;;;;;;;;;;;5047889;28;19920;-60
2022/09/04 07:38:41;;;;;;;;;;;;;;;;;;5047050;28;20391;-60
2022/09/04 07:41:08;;;;;;;;;;;;;;;;;;5046315;28;19916;-60
2022/09/04 07:43:34;;;;;;;;;;;;;;;;;;5043649;28;20140;-60
2022/09/04 07:46:02;;;;;;;;;;;;;;;;;;5046593;28;20383;-60
2022/09/04 07:48:28;;;;;;;;;;;;;;;;;;5045554;28;20033;-60
2022/09/04 07:51:02;;;;;;;;;;;;;;;;;;5047006;28;20032;-60
2022/09/04 07:53:27;;;;;;;;;;;;;;;;;;5045771;28;20007;-60
2022/09/04 07:55:53;;;;;;;;;;;;;;;;;;5047255;28;20490;-60
2022/09/04 07:58:19;;;;;;;;;;;;;;;;;;5045932;28;19913;-60
2022/09/04 08:00:45;;;;;;;;;;;;;;;;;;5047302;28;19905;-60
2022/09/04 08:03:12;;;;;;;;;;;;;;;;;;5045254;28;19912;-60
2022/09/04 08:05:39;;;;;;;;;;;;;;;;;;5046720;28;19920;-60
2022/09/04 08:08:06;;;;;;;;;;;;;;;;;;5043114;28;20481;-60
2022/09/04 08:10:32;;;;;;;;;;;;;;;;;;5041783;28;20012;-60
2022/09/04 08:12:57;;;;;;;;;;;;;;;;;;5045203;28;20015;-60
2022/09/04 08:15:23;;;;;;;;;;;;;;;;;;5044568;28;20016;-60
2022/09/04 08:17:49;;;;;;;;;;;;;;;;;;5039715;28;19928;-60
2022/09/04 08:20:15;;;;;;;;;;;;;;;;;;5047038;28;19983;-60
2022/09/04 08:22:41;;;;;;;;;;;;;;;;;;5043801;28;19913;-60
2022/09/04 08:25:07;;;;;;;;;;;;;;;;;;5046618;28;19916;-60
2022/09/04 08:27:34;;;;;;;;;;;;;;;;;;5045264;28;19925;-60
2022/09/04 08:30:03;;;;;;;;;;;;;;;;;;5026844;28;20295;-60
2022/09/04 08:32:29;;;;;;;;;;;;;;;;;;5045937;28;19974;-60
2022/09/04 08:34:55;;;;;;;;;;;;;;;;;;5044196;28;19916;-60
2022/09/04 08:37:21;;;;;;;;;;;;;;;;;;5044879;28;19999;-60
2022/09/04 08:39:47;;;;;;;;;;;;;;;;;;5034370;28;19995;-60
2022/09/04 08:42:13;;;;;;;;;;;;;;;;;;5045254;28;19916;-60
2022/09/04 08:44:39;;;;;;;;;;;;;;;;;;5046684;28;19920;-61
2022/09/04 08:47:05;;;;;;;;;;;;;;;;;;5044654;28;19919;-60
2022/09/04 08:49:32;;;;;;;;;;;;;;;;;;5046264;28;19912;-60
2022/09/04 08:51:58;;;;;;;;;;;;;;;;;;5044842;28;20355;-60
2022/09/04 08:54:24;;;;;;;;;;;;;;;;;;5045242;28;19909;-60
2022/09/04 08:56:50;;;;;;;;;;;;;;;;;;5044683;28;19913;-60
2022/09/04 08:59:16;;;;;;;;;;;;;;;;;;5045314;28;19910;-60
2022/09/04 09:01:42;;;;;;;;;;;;;;;;;;5046733;28;20737;-60
2022/09/04 09:04:10;;;;;;;;;;;;;;;;;;5048298;28;19908;-61
2022/09/04 09:06:36;;;;;;;;;;;;;;;;;;5048928;28;19995;-60
2022/09/04 09:09:02;;;;;;;;;;;;;;;;;;5047622;28;20051;-58
2022/09/04 09:11:28;;;;;;;;;;;;;;;;;;5043521;28;19963;-58
2022/09/04 09:13:54;;;;;;;;;;;;;;;;;;5029999;28;19912;-58
2022/09/04 09:16:20;;;;;;;;;;;;;;;;;;5032576;28;19916;-58
2022/09/04 09:18:46;;;;;;;;;;;;;;;;;;5030540;28;19966;-58
2022/09/04 09:21:13;;;;;;;;;;;;;;;;;;5029725;28;20011;-58
2022/09/04 09:23:40;;;;;;;;;;;;;;;;;;5029639;28;19921;-58
2022/09/04 09:26:07;;;;;;;;;;;;;;;;;;5039538;28;19921;-58
2022/09/04 09:28:33;;;;;;;;;;;;;;;;;;5031233;28;19967;-58
2022/09/04 09:30:59;;;;;;;;;;;;;;;;;;5031571;28;21786;-58
2022/09/04 09:33:25;;;;;;;;;;;;;;;;;;5035211;28;19932;-58
2022/09/04 09:35:54;;;;;;;;;;;;;;;;;;5033359;28;19917;-58
2022/09/04 09:38:20;;;;;;;;;;;;;;;;;;5047805;28;19917;-58
2022/09/04 09:40:46;;;;;;;;;;;;;;;;;;5049082;28;19913;-58
2022/09/04 09:43:12;;;;;;;;;;;;;;;;;;5048424;28;19917;-58
2022/09/04 09:45:38;;;;;;;;;;;;;;;;;;5047978;28;19919;-58
2022/09/04 09:48:04;;;;;;;;;;;;;;;;;;5048267;28;19913;-58
2022/09/04 09:50:30;;;;;;;;;;;;;;;;;;5049473;28;19963;-59
2022/09/04 09:52:56;;;;;;;;;;;;;;;;;;5043477;28;20003;-59
2022/09/04 09:55:22;;;;;;;;;;;;;;;;;;5044705;28;19913;-58
2022/09/04 09:57:48;;;;;;;;;;;;;;;;;;5041100;28;19956;-58
2022/09/04 10:00:14;;;;;;;;;;;;;;;;;;5048666;28;19920;-58
2022/09/04 10:02:40;;;;;;;;;;;;;;;;;;5040988;28;19963;-59
2022/09/04 10:05:06;;;;;;;;;;;;;;;;;;5046570;28;20480;-58
2022/09/04 10:07:35;;;;;;;;;;;;;;;;;;5045272;28;19968;-59
2022/09/04 10:10:01;;;;;;;;;;;;;;;;;;5043199;28;19913;-62
2022/09/04 10:12:27;;;;;;;;;;;;;;;;;;5046939;28;20396;-66
2022/09/04 10:14:54;;;;;;;;;;;;;;;;;;5045605;28;19913;-61
2022/09/04 10:17:21;;;;;;;;;;;;;;;;;;5045244;28;19939;-62
2022/09/04 10:19:47;;;;;;;;;;;;;;;;;;5045967;28;19909;-62
2022/09/04 10:22:13;;;;;;;;;;;;;;;;;;5047056;28;19915;-62
2022/09/04 10:24:39;;;;;;;;;;;;;;;;;;5046332;28;19959;-62
2022/09/04 10:27:05;;;;;;;;;;;;;;;;;;5045497;28;19913;-63
2022/09/04 10:29:31;;;;;;;;;;;;;;;;;;5047194;28;19921;-62
2022/09/04 10:31:57;;;;;;;;;;;;;;;;;;5046516;28;19921;-62
2022/09/04 10:34:23;;;;;;;;;;;;;;;;;;5044324;28;19921;-62
2022/09/04 10:36:49;;;;;;;;;;;;;;;;;;5046200;28;19920;-62
2022/09/04 10:41:59;;;;;;;;;;;;;;;;;;5046107;28;19924;-61
2022/09/04 10:44:25;;;;;;;;;;;;;;;;;;5046845;28;19916;-63
2022/09/04 10:46:51;;;;;;;;;;;;;;;;;;5046186;28;20011;-62
2022/09/04 10:49:17;;;;;;;;;;;;;;;;;;5047693;28;20015;-61
2022/09/04 10:51:43;;;;;;;;;;;;;;;;;;5047811;28;20015;-62
2022/09/04 10:54:09;;;;;;;;;;;;;;;;;;5048065;28;19913;-63
2022/09/04 10:56:35;;;;;;;;;;;;;;;;;;5047042;28;20516;-62
2022/09/04 10:59:02;;;;;;;;;;;;;;;;;;5045720;28;19921;-62
2022/09/04 11:01:28;;;;;;;;;;;;;;;;;;5046983;28;19913;-63
2022/09/04 11:03:54;;;;;;;;;;;;;;;;;;5045927;28;19944;-62
2022/09/04 11:06:24;;;;;;;;;;;;;;;;;;5046087;28;20524;-62
2022/09/04 11:08:50;;;;;;;;;;;;;;;;;;5046564;28;20352;-62
2022/09/04 11:11:16;;;;;;;;;;;;;;;;;;5044537;28;19991;-62
2022/09/04 11:13:42;;;;;;;;;;;;;;;;;;5047873;28;19948;-62
2022/09/04 11:16:08;;;;;;;;;;;;;;;;;;5043984;28;20400;-62
2022/09/04 11:18:34;;;;;;;;;;;;;;;;;;5044217;28;20003;-62
2022/09/04 11:21:01;;;;;;;;;;;;;;;;;;5027903;28;20001;-64
2022/09/04 11:23:27;;;;;;;;;;;;;;;;;;5036366;28;19920;-62
2022/09/04 11:25:53;;;;;;;;;;;;;;;;;;5045169;28;19913;-62
2022/09/04 11:28:19;;;;;;;;;;;;;;;;;;5046324;28;20392;-62
2022/09/04 11:30:47;;;;;;;;;;;;;;;;;;5045000;28;20031;-62
2022/09/04 11:33:13;;;;;;;;;;;;;;;;;;5045043;28;19913;-62
2022/09/04 11:35:39;;;;;;;;;;;;;;;;;;5044619;28;19912;-63
2022/09/04 11:38:05;;;;;;;;;;;;;;;;;;5046054;28;19967;-63
2022/09/04 11:40:31;;;;;;;;;;;;;;;;;;5028467;28;19920;-63
2022/09/04 11:42:56;;;;;;;;;;;;;;;;;;5043466;28;19921;-63
2022/09/04 11:45:22;;;;;;;;;;;;;;;;;;5045684;28;19920;-63
2022/09/04 11:47:49;;;;;;;;;;;;;;;;;;5046373;28;19909;-63
2022/09/04 11:50:15;;;;;;;;;;;;;;;;;;5046394;28;19991;-63
2022/09/04 11:52:45;;;;;;;;;;;;;;;;;;5044449;28;20046;-63
2022/09/04 11:55:12;;;;;;;;;;;;;;;;;;5046498;28;20598;-63
2022/09/04 11:57:39;;;;;;;;;;;;;;;;;;5046961;28;19932;-63
2022/09/04 12:00:06;;;;;;;;;;;;;;;;;;5044580;28;19917;-63
2022/09/04 12:02:32;;;;;;;;;;;;;;;;;;5045471;28;19923;-63
2022/09/04 12:04:59;;;;;;;;;;;;;;;;;;5044679;28;19909;-63
2022/09/04 12:07:26;;;;;;;;;;;;;;;;;;5046266;28;19995;-63
2022/09/04 12:09:52;;;;;;;;;;;;;;;;;;5045630;28;19909;-62
2022/09/04 12:12:21;;;;;;;;;;;;;;;;;;5044315;28;19990;-63
2022/09/04 12:14:47;;;;;;;;;;;;;;;;;;5045895;28;19948;-62
2022/09/04 12:17:14;;;;;;;;;;;;;;;;;;5045346;28;20762;-60
2022/09/04 12:19:41;;;;;;;;;;;;;;;;;;5045425;28;20632;-61
2022/09/04 12:22:07;;;;;;;;;;;;;;;;;;5045666;28;19924;-61
2022/09/04 12:24:33;;;;;;;;;;;;;;;;;;5045782;28;19912;-61
2022/09/04 12:27:00;;;;;;;;;;;;;;;;;;5044559;28;19909;-61
2022/09/04 12:29:26;;;;;;;;;;;;;;;;;;5045294;28;19990;-61
2022/09/04 12:31:52;;;;;;;;;;;;;;;;;;5027155;28;19921;-61
2022/09/04 12:34:19;;;;;;;;;;;;;;;;;;5027623;28;20401;-60
2022/09/04 12:36:45;;;;;;;;;;;;;;;;;;5042720;28;19913;-61
2022/09/04 12:39:11;;;;;;;;;;;;;;;;;;5045949;28;19917;-62
2022/09/04 12:41:38;;;;;;;;;;;;;;;;;;5044075;28;19920;-60
2022/09/04 12:44:25;;;;;;;0.80;0.60;;;;;;;;;;5040718;28;20448;-64
2022/09/04 12:47:00;;;;;;;0.40;0.40;;;;;;;;;;5006308;28;20049;-64
2022/09/04 12:49:35;;;;;;;1.95;0.60;;;;;;;;;;5047079;28;20025;-65
2022/09/04 12:52:01;;;;;;;0.85;0.50;;;;;;;;;;5047449;28;20188;-64
2022/09/04 12:54:33;;;;;;;0.50;0.40;;;;;;;;;;5046870;28;20104;-63
2022/09/04 12:57:14;;;;;;;1.08;0.40;;;;;;;;;;5046901;28;20401;-63
2022/09/04 13:00:04;;;;;;;1.42;0.70;;;;;;;;;;5041562;28;20028;-61
2022/09/04 13:02:37;;;;;;;0.73;0.60;;;;;;;;;;5038642;28;20041;-63
2022/09/04 13:05:30;;;;;;;1.27;0.60;;;;;;;;;;5028441;28;20104;-63
2022/09/04 13:08:10;;;;;;;0.93;0.50;;;;;;;;;;5020805;28;20048;-62
2022/09/04 13:10:48;;;;;;;0.60;0.60;;;;;;;;;;5046493;28;20178;-62
2022/09/04 13:13:30;;;;;;;0.60;0.60;;;;;;;;;;5047163;28;20034;-62
2022/09/04 13:16:01;;;;;;;0.50;0.50;;;;;;;;;;5046977;28;20427;-63
2022/09/04 13:18:33;;;;;;;0.68;0.60;;;;;;;;;;5046375;28;20402;-62
2022/09/04 13:20:59;;;;;;;0.60;0.60;;;;;;;;;;5027021;28;20035;-62
2022/09/04 13:23:45;;;;;;;0.82;0.60;;;;;;;;;;5048040;28;20060;-61
2022/09/04 13:26:20;;;;;;;2.30;0.90;;;;;;;;;;5046172;28;20040;-62
2022/09/04 13:29:07;;;;;;;0.60;0.60;;;;;;;;;;5026644;28;20033;-61
2022/09/04 13:31:39;;;;;;;1.02;0.70;;;;;;;;;;5043622;28;20753;-63
2022/09/04 13:34:24;;;;;;;1.00;0.70;;;;;;;;;;5045234;28;20039;-63
2022/09/04 13:37:03;;;;;;;0.80;0.57;;;;;;;;;;5047520;28;20116;-61
2022/09/04 13:39:38;;;;;;;0.50;0.50;;;;;;;;;;5041160;28;20021;-62
2022/09/04 13:42:20;;;;;;;0.93;0.70;;;;;;;;;;5046414;28;20029;-62
2022/09/04 13:45:05;;;;;;;2.85;0.60;;;;;;;;;;5045518;28;20037;-62
2022/09/04 13:47:38;;;;;;;0.90;0.60;;;;;;;;;;5043535;28;20051;-63
2022/09/04 13:50:16;;;;;;;0.70;0.57;;;;;;;;;;5026595;28;20547;-63
2022/09/04 13:52:48;;;;;;;1.13;0.60;;;;;;;;;;5026846;28;20280;-62
2022/09/04 13:55:15;;;;;;;0.95;0.60;;;;;;;;;;5026674;28;20516;-62
2022/09/04 13:57:46;;;;;;;1.05;0.50;;;;;;;;;;5026982;28;20047;-61
2022/09/04 14:00:15;;;;;;;0.68;0.45;;;;;;;;;;5027138;28;20755;-62
2022/09/04 14:02:43;;;;;;;1.95;0.40;;;;;;;;;;5027386;28;20053;-62
2022/09/04 14:05:10;;;;;;;1.70;1.05;;;;;;;;;;5027137;28;20095;-63
2022/09/04 14:07:43;;;;;;;0.90;0.50;;;;;;;;;;5042343;28;20095;-62
2022/09/04 14:10:14;;;;;;;1.25;0.60;;;;;;;;;;5047107;28;20021;-64
2022/09/04 14:12:59;;;;;;;0.50;0.50;;;;;;;;;;5046574;28;20028;-62
2022/09/04 14:15:31;;;;;;;0.45;0.40;;;;;;;;;;5046188;28;20083;-63
2022/09/04 14:18:17;;;;;;;0.60;0.60;;;;;;;;;;5044783;28;20033;-63
2022/09/04 14:20:46;;;;;;;0.60;0.60;;;;;;;;;;5044795;28;20447;-62
2022/09/04 14:23:31;;;;;;;0.85;0.70;;;;;;;;;;5046444;28;20033;-62
2022/09/04 14:26:02;;;;;;;0.50;0.50;;;;;;;;;;5045488;28;20029;-64
2022/09/04 14:28:30;;;;;;;1.55;0.60;;;;;;;;;;5034959;28;20412;-63
2022/09/04 14:31:17;;;;;;;1.27;0.50;;;;;;;;;;5034851;28;20032;-63
2022/09/04 14:33:50;;;;;;;0.60;0.60;;;;;;;;;;5025258;28;20416;-63
2022/09/04 14:36:20;;;;;;;0.50;0.40;;;;;;;;;;5025168;28;20021;-63
2022/09/04 14:38:53;;;;;;;1.00;0.63;;;;;;;;;;5024650;28;20030;-63
2022/09/04 14:41:30;;;;;;;1.65;0.70;;;;;;;;;;5037629;28;20412;-64
2022/09/04 14:44:02;;;;;;;1.50;0.70;;;;;;;;;;5045028;28;20029;-63
2022/09/04 14:46:37;;;;;;;2.42;0.80;;;;;;;;;;5045948;28;20506;-62
2022/09/04 14:49:05;;;;;;;1.05;0.82;;;;;;;;;;5044375;28;20025;-63
2022/09/04 14:51:35;;;;;;;2.40;0.77;;;;;;;;;;5043898;28;20323;-64
2022/09/04 14:54:02;;;;;;;1.08;0.80;;;;;;;;;;5045124;28;20036;-63
2022/09/04 14:56:34;;;;;;;0.70;0.70;;;;;;;;;;5045473;28;20029;-64
2022/09/04 14:59:16;;;;;;;0.80;0.60;;;;;;;;;;5044889;28;20025;-64
2022/09/04 15:01:57;;;;;;;0.57;0.50;;;;;;;;;;5043730;28;20031;-63
2022/09/04 15:04:25;;;;;;;0.95;0.60;;;;;;;;;;5044551;28;20036;-64
2022/09/04 15:07:02;;;;;;;1.40;0.73;;;;;;;;;;5042562;28;20462;-63
2022/09/04 15:09:30;;;;;;;0.55;0.55;;;;;;;;;;5045080;28;20025;-65
2022/09/04 15:12:15;;;;;;;0.60;0.60;;;;;;;;;;5044186;28;20040;-64
2022/09/04 15:14:43;;;;;;;0.70;0.60;;;;;;;;;;5044391;28;20087;-64
2022/09/04 15:17:12;;;;;;;1.17;0.65;;;;;;;;;;5044447;28;20728;-64
2022/09/04 15:19:59;;;;;;;2.05;0.90;;;;;;;;;;5044467;28;20104;-64
2022/09/04 15:22:37;;;;;;;1.00;0.70;;;;;;;;;;5044156;28;20416;-64
2022/09/04 15:25:30;;;;;;;1.35;0.82;;;;;;;;;;5043956;28;20041;-63
2022/09/04 15:27:58;;;;;;;1.27;0.65;;;;;;;;;;5012996;28;20037;-65
2022/09/04 15:30:29;;;;;;;1.50;0.60;;;;;;;;;;5044586;28;20392;-65
2022/09/04 15:33:06;;;;;;;0.93;0.60;;;;;;;;;;5043849;28;20021;-64
2022/09/04 15:35:32;;;;;;;2.88;1.00;;;;;;;;;;5044060;28;20029;-62
2022/09/04 15:38:19;;;;;;;0.93;0.70;;;;;;;;;;5044130;28;20036;-65
2022/09/04 15:40:56;;;;;;;1.17;0.60;;;;;;;;;;5043797;28;20032;-65
2022/09/04 15:43:25;;;;;;;0.93;0.60;;;;;;;;;;5043909;28;20048;-64
2022/09/04 15:45:51;;;;;;;2.40;0.80;;;;;;;;;;5043725;28;20040;-65
2022/09/04 15:48:32;;;;;;;0.95;0.80;;;;;;;;;;5043968;28;20029;-66
2022/09/04 15:51:03;;;;;;;0.70;0.70;;;;;;;;;;5042150;28;20182;-66
2022/09/04 15:53:34;;;;;;;1.90;1.00;;;;;;;;;;5031740;28;20112;-66
2022/09/04 15:56:05;;;;;;;3.22;0.98;;;;;;;;;;5042874;28;20078;-64
2022/09/04 15:58:37;;;;;;;1.40;0.70;;;;;;;;;;5024624;28;20033;-67
2022/09/04 16:01:05;;;;;;;1.27;0.85;;;;;;;;;;5043708;28;20029;-66
2022/09/04 16:04:00;;;;;;;1.15;0.93;;;;;;;;;;5044223;28;20048;-67
2022/09/04 16:06:31;;;;;;;2.63;1.60;;;;;;;;;;5025650;28;20037;-67
2022/09/04 16:09:10;;;;;;;3.25;1.50;;;;;;;;;;5034669;28;20120;-67
2022/09/04 16:11:46;;;;;;;1.98;0.98;;;;;;;;;;5040304;28;20025;-66
2022/09/04 16:14:22;;;;;;;0.60;0.60;;;;;;;;;;5042334;28;20053;-65
2022/09/04 16:16:53;;;;;;;1.35;1.00;;;;;;;;;;5016713;28;20079;-67
2022/09/04 16:19:22;;;;;;;2.90;1.20;;;;;;;;;;5041855;28;20049;-67
2022/09/04 16:22:01;;;;;;;0.95;0.85;;;;;;;;;;5033366;28;20056;-64
2022/09/04 16:24:33;;;;;;;1.52;1.00;;;;;;;;;;5042371;28;20025;-66